Time;durP1;ratioP1;P1;durP2;ratioP2;P2;SDS_P1;SDS_P2;PMS_P1;PMS_P2;Temp;Humidity;BMP_temperature;BMP_pressure;BME280_temperature;BME280_humidity;BME280_pressure;Samples;Min_cycle;Max_cycle;Signal;HPM_P1;HPM_P2
2023/05/22 00:01:25;;;;;;;36.03;33.53;;;;;;;;;;5041666;28;20499;-80
2023/05/22 00:03:53;;;;;;;36.10;33.30;;;;;;;;;;5041674;28;20474;-81
2023/05/22 00:06:20;;;;;;;35.30;32.80;;;;;;;;;;5041006;28;20481;-81
2023/05/22 00:08:47;;;;;;;34.67;32.37;;;;;;;;;;5041206;28;20434;-81
2023/05/22 00:11:15;;;;;;;35.77;32.97;;;;;;;;;;5041232;28;20435;-81
2023/05/22 00:13:41;;;;;;;34.77;32.17;;;;;;;;;;5041711;28;20512;-82
2023/05/22 00:16:08;;;;;;;34.53;32.20;;;;;;;;;;5042501;28;20454;-82
2023/05/22 00:18:35;;;;;;;33.80;31.30;;;;;;;;;;5043392;28;20516;-81
2023/05/22 00:21:04;;;;;;;36.33;33.60;;;;;;;;;;5042998;28;20529;-82
2023/05/22 00:23:31;;;;;;;33.47;31.13;;;;;;;;;;5043170;28;20449;-82
2023/05/22 00:25:58;;;;;;;35.77;33.10;;;;;;;;;;5042619;28;20474;-80
2023/05/22 00:28:25;;;;;;;34.87;32.43;;;;;;;;;;5043717;28;20454;-81
2023/05/22 00:30:52;;;;;;;34.63;32.13;;;;;;;;;;5042755;28;20872;-82
2023/05/22 00:33:19;;;;;;;33.73;31.27;;;;;;;;;;5041371;28;20461;-81
2023/05/22 00:35:46;;;;;;;33.40;30.90;;;;;;;;;;5041101;28;20930;-82
2023/05/22 00:38:28;;;;;;;34.67;32.17;;;;;;;;;;5043260;28;20438;-81
2023/05/22 00:40:55;;;;;;;34.07;31.27;;;;;;;;;;5042777;28;20531;-81
2023/05/22 00:43:22;;;;;;;34.63;32.10;;;;;;;;;;5043034;28;20516;-81
2023/05/22 00:45:51;;;;;;;34.63;32.23;;;;;;;;;;5041492;28;20413;-82
2023/05/22 00:48:18;;;;;;;36.17;33.57;;;;;;;;;;5042372;28;20449;-81
2023/05/22 00:50:45;;;;;;;34.33;31.93;;;;;;;;;;5042310;28;20483;-82
2023/05/22 00:53:13;;;;;;;35.97;33.33;;;;;;;;;;5041255;28;20464;-81
2023/05/22 00:55:41;;;;;;;35.57;33.03;;;;;;;;;;5042599;28;20453;-82
2023/05/22 00:58:11;;;;;;;36.00;33.03;;;;;;;;;;5042684;28;20469;-80
2023/05/22 01:00:40;;;;;;;34.57;32.03;;;;;;;;;;5042711;28;20471;-81
2023/05/22 01:03:08;;;;;;;33.57;31.13;;;;;;;;;;5043108;28;20424;-81
2023/05/22 01:05:35;;;;;;;34.23;31.63;;;;;;;;;;5042481;28;20428;-81
2023/05/22 01:08:02;;;;;;;34.50;32.00;;;;;;;;;;5042760;28;20454;-81
2023/05/22 01:10:29;;;;;;;34.60;31.97;;;;;;;;;;5054015;28;20474;-81
2023/05/22 01:13:01;;;;;;;33.80;31.10;;;;;;;;;;5056817;28;20476;-81
2023/05/22 01:15:32;;;;;;;34.17;31.67;;;;;;;;;;5055452;28;20627;-81
2023/05/22 01:18:04;;;;;;;34.27;31.77;;;;;;;;;;5047443;28;20439;-82
2023/05/22 01:20:35;;;;;;;34.43;31.83;;;;;;;;;;5047516;28;20490;-82
2023/05/22 01:23:17;;;;;;;34.47;32.17;;;;;;;;;;5047396;28;20446;-82
2023/05/22 01:25:57;;;;;;;34.63;32.13;;;;;;;;;;5046574;28;20450;-82
2023/05/22 01:28:36;;;;;;;34.50;32.00;;;;;;;;;;5047099;28;20542;-82
2023/05/22 01:31:07;;;;;;;33.70;31.30;;;;;;;;;;5046638;28;20470;-82
2023/05/22 01:33:46;;;;;;;33.63;31.23;;;;;;;;;;5046410;28;20481;-82
2023/05/22 01:36:14;;;;;;;34.77;32.37;;;;;;;;;;5045524;28;20501;-81
2023/05/22 01:38:42;;;;;;;34.97;32.17;;;;;;;;;;5046397;28;20524;-81
2023/05/22 01:41:09;;;;;;;33.83;31.33;;;;;;;;;;5046581;28;20447;-81
2023/05/22 01:43:37;;;;;;;35.77;33.07;;;;;;;;;;5046779;28;20425;-81
2023/05/22 01:46:05;;;;;;;37.00;34.40;;;;;;;;;;5045800;28;20463;-82
2023/05/22 01:48:32;;;;;;;35.40;32.90;;;;;;;;;;5045908;28;20826;-81
2023/05/22 01:51:01;;;;;;;37.57;34.77;;;;;;;;;;5045015;28;20483;-81
2023/05/22 01:53:30;;;;;;;37.43;34.53;;;;;;;;;;5044824;28;20525;-81
2023/05/22 01:56:04;;;;;;;35.27;32.50;;;;;;;;;;5043748;28;20442;-81
2023/05/22 01:58:34;;;;;;;35.30;32.43;;;;;;;;;;5044079;28;20477;-82
2023/05/22 02:01:02;;;;;;;35.33;32.80;;;;;;;;;;5044134;28;20532;-81
2023/05/22 02:03:34;;;;;;;35.40;32.70;;;;;;;;;;5044273;28;20441;-81
2023/05/22 02:06:03;;;;;;;34.30;31.70;;;;;;;;;;5044758;28;20451;-82
2023/05/22 02:08:30;;;;;;;35.03;32.43;;;;;;;;;;5048046;28;20417;-82
2023/05/22 02:10:58;;;;;;;35.27;32.60;;;;;;;;;;5047113;28;20496;-81
2023/05/22 02:13:25;;;;;;;33.70;31.20;;;;;;;;;;5048659;28;20549;-82
2023/05/22 02:15:52;;;;;;;34.47;32.07;;;;;;;;;;5046076;28;20429;-82
2023/05/22 02:18:21;;;;;;;35.30;32.70;;;;;;;;;;5046955;28;20473;-81
2023/05/22 02:20:49;;;;;;;35.50;33.00;;;;;;;;;;5046648;28;20501;-82
2023/05/22 02:23:16;;;;;;;35.17;31.97;;;;;;;;;;5045763;28;20485;-82
2023/05/22 02:25:43;;;;;;;35.33;32.83;;;;;;;;;;5045985;28;20984;-81
2023/05/22 02:28:10;;;;;;;36.20;33.40;;;;;;;;;;5049940;28;20436;-80
2023/05/22 02:30:37;;;;;;;33.67;31.27;;;;;;;;;;5054346;28;20463;-81
2023/05/22 02:33:05;;;;;;;34.73;32.23;;;;;;;;;;5054135;28;20487;-81
2023/05/22 02:35:32;;;;;;;34.80;32.20;;;;;;;;;;5053420;28;20515;-80
2023/05/22 02:38:00;;;;;;;34.47;31.87;;;;;;;;;;5054604;28;20459;-81
2023/05/22 02:40:27;;;;;;;33.40;31.13;;;;;;;;;;5054264;28;20834;-82
2023/05/22 02:42:54;;;;;;;32.90;30.60;;;;;;;;;;5052663;28;20408;-81
2023/05/22 02:45:21;;;;;;;34.70;32.30;;;;;;;;;;5044509;28;20433;-82
2023/05/22 02:47:48;;;;;;;34.97;32.33;;;;;;;;;;5043710;28;20458;-81
2023/05/22 02:50:15;;;;;;;34.77;32.27;;;;;;;;;;5043870;28;20482;-81
2023/05/22 02:52:44;;;;;;;33.30;30.93;;;;;;;;;;5044131;28;20486;-82
2023/05/22 02:55:13;;;;;;;36.10;33.40;;;;;;;;;;5043422;28;20458;-81
2023/05/22 02:57:40;;;;;;;35.17;32.47;;;;;;;;;;5043583;28;20425;-81
2023/05/22 03:00:10;;;;;;;34.50;32.07;;;;;;;;;;5046486;28;20519;-82
2023/05/22 03:02:37;;;;;;;33.57;30.97;;;;;;;;;;5047964;28;20438;-81
2023/05/22 03:05:04;;;;;;;36.00;33.10;;;;;;;;;;5043354;28;20448;-81
2023/05/22 03:07:31;;;;;;;33.87;31.27;;;;;;;;;;5043000;28;20451;-81
2023/05/22 03:09:58;;;;;;;33.47;30.70;;;;;;;;;;5043534;28;20528;-81
2023/05/22 03:12:26;;;;;;;34.93;32.27;;;;;;;;;;5043021;28;20417;-81
2023/05/22 03:14:53;;;;;;;33.20;30.90;;;;;;;;;;5042511;28;20493;-81
2023/05/22 03:17:20;;;;;;;33.20;30.67;;;;;;;;;;5042049;28;20938;-81
2023/05/22 03:19:47;;;;;;;33.80;31.27;;;;;;;;;;5042565;28;20482;-81
2023/05/22 03:22:17;;;;;;;35.03;32.53;;;;;;;;;;5042053;28;20458;-81
2023/05/22 03:24:44;;;;;;;32.83;30.43;;;;;;;;;;5042506;28;20485;-81
2023/05/22 03:27:13;;;;;;;33.87;31.47;;;;;;;;;;5042660;28;20429;-81
2023/05/22 03:29:41;;;;;;;35.43;32.73;;;;;;;;;;5042327;28;20461;-81
2023/05/22 03:32:08;;;;;;;35.30;32.77;;;;;;;;;;5042249;28;20454;-81
2023/05/22 03:34:35;;;;;;;35.50;32.90;;;;;;;;;;5041976;28;20456;-82
2023/05/22 03:37:02;;;;;;;33.40;30.90;;;;;;;;;;5041984;28;20486;-81
2023/05/22 03:39:29;;;;;;;33.97;31.67;;;;;;;;;;5042101;28;20466;-82
2023/05/22 03:41:56;;;;;;;33.03;30.40;;;;;;;;;;5041672;28;20452;-81
2023/05/22 03:44:23;;;;;;;32.77;30.57;;;;;;;;;;5043145;28;20449;-81
2023/05/22 03:46:52;;;;;;;34.77;32.07;;;;;;;;;;5042808;28;20421;-81
2023/05/22 03:49:19;;;;;;;32.53;30.33;;;;;;;;;;5043542;28;20458;-79
2023/05/22 03:51:46;;;;;;;34.63;32.00;;;;;;;;;;5043234;28;20454;-79
2023/05/22 03:54:13;;;;;;;34.80;32.17;;;;;;;;;;5041832;28;21338;-80
2023/05/22 03:56:40;;;;;;;34.40;31.70;;;;;;;;;;5041770;28;20815;-80
2023/05/22 03:59:07;;;;;;;34.00;31.40;;;;;;;;;;5042880;28;20455;-80
2023/05/22 04:01:37;;;;;;;34.30;31.70;;;;;;;;;;5042036;28;20479;-80
2023/05/22 04:04:06;;;;;;;35.40;32.83;;;;;;;;;;5042652;28;20432;-79
2023/05/22 04:06:41;;;;;;;35.00;32.30;;;;;;;;;;5041633;28;20443;-80
2023/05/22 04:09:08;;;;;;;35.23;32.73;;;;;;;;;;5041787;28;20506;-80
2023/05/22 04:11:35;;;;;;;34.77;32.03;;;;;;;;;;5041632;28;20458;-80
2023/05/22 04:14:04;;;;;;;33.33;30.73;;;;;;;;;;5041200;28;20531;-80
2023/05/22 04:16:31;;;;;;;33.53;30.80;;;;;;;;;;5040909;28;20442;-79
2023/05/22 04:19:00;;;;;;;34.03;31.50;;;;;;;;;;5041776;28;20471;-79
2023/05/22 04:21:28;;;;;;;35.50;32.80;;;;;;;;;;5041817;28;20450;-79
2023/05/22 04:23:55;;;;;;;36.30;33.20;;;;;;;;;;5042323;28;20467;-80
2023/05/22 04:26:23;;;;;;;33.33;31.03;;;;;;;;;;5040882;28;20450;-80
2023/05/22 04:28:50;;;;;;;34.73;32.20;;;;;;;;;;5041772;28;20797;-80
2023/05/22 04:31:17;;;;;;;34.73;32.13;;;;;;;;;;5041956;28;20473;-79
2023/05/22 04:33:47;;;;;;;33.33;30.53;;;;;;;;;;5041318;28;20483;-78
2023/05/22 04:36:14;;;;;;;33.07;30.57;;;;;;;;;;5040716;28;20444;-80
2023/05/22 04:38:43;;;;;;;34.17;31.77;;;;;;;;;;5041455;28;20437;-80
2023/05/22 04:41:12;;;;;;;33.40;30.60;;;;;;;;;;5041495;28;20535;-80
2023/05/22 04:43:39;;;;;;;33.47;31.07;;;;;;;;;;5041443;28;20429;-79
2023/05/22 04:46:07;;;;;;;34.00;31.60;;;;;;;;;;5043204;28;20840;-80
2023/05/22 04:48:35;;;;;;;35.83;33.20;;;;;;;;;;5045164;28;20459;-80
2023/05/22 04:51:03;;;;;;;32.93;30.50;;;;;;;;;;5048948;28;20553;-79
2023/05/22 04:53:32;;;;;;;34.87;32.27;;;;;;;;;;5047205;28;20540;-80
2023/05/22 04:56:00;;;;;;;34.07;31.67;;;;;;;;;;5045858;28;20973;-80
2023/05/22 04:58:28;;;;;;;33.13;30.77;;;;;;;;;;5046078;28;20484;-80
2023/05/22 05:00:56;;;;;;;34.23;31.83;;;;;;;;;;5045633;28;20474;-80
2023/05/22 05:03:24;;;;;;;36.40;32.60;;;;;;;;;;5043269;28;20514;-79
2023/05/22 05:05:51;;;;;;;33.83;31.43;;;;;;;;;;5045086;28;20494;-80
2023/05/22 05:08:18;;;;;;;33.23;30.47;;;;;;;;;;5045682;28;20453;-79
2023/05/22 05:10:45;;;;;;;31.73;29.43;;;;;;;;;;5045499;28;20472;-79
2023/05/22 05:13:13;;;;;;;31.53;29.43;;;;;;;;;;5045830;28;20453;-79
2023/05/22 05:15:40;;;;;;;31.57;29.27;;;;;;;;;;5045159;28;20450;-80
2023/05/22 05:18:07;;;;;;;32.70;30.40;;;;;;;;;;5045634;28;20480;-80
2023/05/22 05:20:34;;;;;;;33.03;30.73;;;;;;;;;;5046141;28;20473;-79
2023/05/22 05:23:01;;;;;;;31.03;28.87;;;;;;;;;;5045869;28;20453;-79
2023/05/22 05:25:29;;;;;;;32.30;30.10;;;;;;;;;;5044860;28;20860;-80
2023/05/22 05:27:56;;;;;;;32.10;29.90;;;;;;;;;;5045215;28;20432;-80
2023/05/22 05:30:24;;;;;;;31.60;28.93;;;;;;;;;;5044824;28;21045;-80
2023/05/22 05:32:51;;;;;;;31.67;29.47;;;;;;;;;;5045215;28;20458;-80
2023/05/22 05:35:19;;;;;;;31.90;29.73;;;;;;;;;;5045278;28;20494;-79
2023/05/22 05:37:46;;;;;;;30.20;28.20;;;;;;;;;;5044667;28;20449;-80
2023/05/22 05:40:14;;;;;;;32.83;30.30;;;;;;;;;;5045349;28;20526;-80
2023/05/22 05:42:41;;;;;;;32.50;30.00;;;;;;;;;;5044762;28;20454;-80
2023/05/22 05:45:08;;;;;;;32.20;29.90;;;;;;;;;;5044964;28;20420;-80
2023/05/22 05:47:36;;;;;;;31.17;28.90;;;;;;;;;;5045577;28;20434;-79
2023/05/22 05:50:04;;;;;;;31.90;29.70;;;;;;;;;;5043721;28;20499;-79
2023/05/22 05:52:31;;;;;;;32.70;30.40;;;;;;;;;;5044138;28;20476;-79
2023/05/22 05:54:59;;;;;;;32.93;30.10;;;;;;;;;;5044051;28;20515;-80
2023/05/22 05:57:27;;;;;;;31.33;29.23;;;;;;;;;;5043432;28;20481;-79
2023/05/22 05:59:54;;;;;;;31.10;28.80;;;;;;;;;;5043962;28;20939;-79
2023/05/22 06:02:21;;;;;;;33.00;30.80;;;;;;;;;;5047794;28;20875;-79
2023/05/22 06:04:49;;;;;;;31.63;29.43;;;;;;;;;;5056591;28;20439;-79
2023/05/22 06:07:16;;;;;;;33.10;30.83;;;;;;;;;;5058687;28;20422;-79
2023/05/22 06:09:43;;;;;;;32.93;30.53;;;;;;;;;;5054302;28;20448;-80
2023/05/22 06:12:12;;;;;;;31.30;29.30;;;;;;;;;;5046074;28;20425;-80
2023/05/22 06:14:39;;;;;;;31.90;29.60;;;;;;;;;;5046627;28;20480;-80
2023/05/22 06:17:07;;;;;;;32.77;30.37;;;;;;;;;;5045720;28;21009;-80
2023/05/22 06:19:35;;;;;;;30.60;28.47;;;;;;;;;;5046034;28;20474;-80
2023/05/22 06:22:03;;;;;;;32.97;30.47;;;;;;;;;;5045493;28;20457;-80
2023/05/22 06:24:31;;;;;;;33.00;30.60;;;;;;;;;;5044969;28;20424;-80
2023/05/22 06:26:58;;;;;;;34.07;31.27;;;;;;;;;;5045122;28;20529;-79
2023/05/22 06:29:25;;;;;;;34.50;32.00;;;;;;;;;;5045544;28;20528;-79
2023/05/22 06:31:52;;;;;;;31.63;29.43;;;;;;;;;;5044809;28;20818;-80
2023/05/22 06:34:21;;;;;;;31.27;28.80;;;;;;;;;;5044622;28;20459;-80
2023/05/22 06:36:49;;;;;;;32.67;30.40;;;;;;;;;;5043770;28;20453;-79
2023/05/22 06:39:17;;;;;;;32.73;30.47;;;;;;;;;;5044194;28;20499;-80
2023/05/22 06:41:44;;;;;;;33.87;31.33;;;;;;;;;;5044009;28;20862;-80
2023/05/22 06:44:12;;;;;;;34.27;31.73;;;;;;;;;;5043714;28;20777;-80
2023/05/22 06:46:39;;;;;;;30.43;28.43;;;;;;;;;;5042968;28;20479;-79
2023/05/22 06:49:06;;;;;;;32.00;29.87;;;;;;;;;;5044249;28;20450;-79
2023/05/22 06:51:34;;;;;;;31.27;29.00;;;;;;;;;;5043756;28;20463;-79
2023/05/22 06:54:03;;;;;;;30.77;28.73;;;;;;;;;;5043036;28;20543;-80
2023/05/22 06:56:31;;;;;;;32.50;30.23;;;;;;;;;;5042457;28;20506;-80
2023/05/22 06:58:58;;;;;;;32.07;29.80;;;;;;;;;;5045928;28;20458;-80
2023/05/22 07:01:25;;;;;;;32.90;30.70;;;;;;;;;;5045512;28;20547;-80
2023/05/22 07:03:52;;;;;;;32.13;30.13;;;;;;;;;;5045672;28;20435;-80
2023/05/22 07:06:19;;;;;;;31.83;29.63;;;;;;;;;;5044402;28;20463;-80
2023/05/22 07:08:48;;;;;;;31.90;29.80;;;;;;;;;;5044751;28;20485;-80
2023/05/22 07:11:15;;;;;;;33.37;30.90;;;;;;;;;;5045338;28;20481;-80
2023/05/22 07:13:43;;;;;;;33.73;31.07;;;;;;;;;;5043449;28;20447;-80
2023/05/22 07:16:10;;;;;;;32.13;29.97;;;;;;;;;;5043994;28;20452;-80
2023/05/22 07:18:38;;;;;;;31.03;28.83;;;;;;;;;;5044395;28;21171;-80
2023/05/22 07:21:05;;;;;;;32.40;30.20;;;;;;;;;;5044254;28;20463;-80
2023/05/22 07:23:32;;;;;;;32.20;30.10;;;;;;;;;;5044093;28;20505;-80
2023/05/22 07:25:59;;;;;;;32.90;30.60;;;;;;;;;;5042667;28;20851;-80
2023/05/22 07:28:26;;;;;;;32.10;29.90;;;;;;;;;;5042915;28;20458;-80
2023/05/22 07:30:56;;;;;;;32.57;30.23;;;;;;;;;;5043219;28;20475;-80
2023/05/22 07:33:23;;;;;;;34.50;32.10;;;;;;;;;;5043160;28;20451;-79
2023/05/22 07:35:50;;;;;;;33.07;30.67;;;;;;;;;;5042616;28;20491;-80
2023/05/22 07:38:18;;;;;;;32.10;30.00;;;;;;;;;;5045023;28;20482;-80
2023/05/22 07:40:45;;;;;;;33.03;30.83;;;;;;;;;;5044868;28;20470;-80
2023/05/22 07:43:14;;;;;;;31.63;29.53;;;;;;;;;;5043229;28;20919;-80
2023/05/22 07:45:41;;;;;;;32.33;30.07;;;;;;;;;;5043238;28;20453;-80
2023/05/22 07:48:10;;;;;;;33.60;31.43;;;;;;;;;;5042875;28;20474;-80
2023/05/22 07:50:37;;;;;;;31.83;29.70;;;;;;;;;;5041841;28;20478;-80
2023/05/22 07:53:05;;;;;;;30.87;28.80;;;;;;;;;;5042091;28;20492;-79
2023/05/22 07:55:32;;;;;;;32.30;30.00;;;;;;;;;;5041105;28;20537;-79
2023/05/22 07:57:59;;;;;;;32.47;30.27;;;;;;;;;;5040251;28;20479;-79
2023/05/22 08:00:26;;;;;;;33.83;31.43;;;;;;;;;;5041141;28;20498;-80
2023/05/22 08:02:53;;;;;;;32.13;30.00;;;;;;;;;;5041172;28;20493;-80
2023/05/22 08:05:21;;;;;;;31.27;29.07;;;;;;;;;;5043593;28;20422;-80
2023/05/22 08:07:48;;;;;;;33.77;31.23;;;;;;;;;;5040240;28;20804;-80
2023/05/22 08:10:17;;;;;;;31.90;29.80;;;;;;;;;;5041049;28;20454;-80
2023/05/22 08:12:44;;;;;;;31.00;29.00;;;;;;;;;;5041327;28;20494;-80
2023/05/22 08:15:12;;;;;;;32.03;29.83;;;;;;;;;;5040501;28;20482;-80
2023/05/22 08:17:39;;;;;;;34.33;31.83;;;;;;;;;;5040709;28;20926;-80
2023/05/22 08:20:07;;;;;;;30.83;28.87;;;;;;;;;;5040126;28;20472;-80
2023/05/22 08:22:36;;;;;;;32.20;29.90;;;;;;;;;;5040636;28;20463;-80
2023/05/22 08:25:03;;;;;;;33.03;30.83;;;;;;;;;;5040736;28;20809;-80
2023/05/22 08:27:30;;;;;;;31.93;29.73;;;;;;;;;;5040208;28;20449;-80
2023/05/22 08:29:57;;;;;;;33.60;31.17;;;;;;;;;;5040271;28;20984;-80
2023/05/22 08:32:24;;;;;;;33.00;30.90;;;;;;;;;;5040221;28;20456;-80
2023/05/22 08:34:51;;;;;;;32.80;30.70;;;;;;;;;;5040912;28;21044;-80
2023/05/22 08:37:18;;;;;;;32.80;30.60;;;;;;;;;;5039892;28;20810;-78
2023/05/22 08:39:47;;;;;;;32.60;30.40;;;;;;;;;;5040981;28;20538;-80
2023/05/22 08:42:14;;;;;;;32.73;30.53;;;;;;;;;;5040866;28;20889;-80
2023/05/22 08:44:41;;;;;;;33.17;31.03;;;;;;;;;;5039814;28;20456;-79
2023/05/22 08:47:10;;;;;;;34.00;31.30;;;;;;;;;;5039453;28;20411;-80
2023/05/22 08:49:38;;;;;;;32.23;30.20;;;;;;;;;;5039878;28;20502;-80
2023/05/22 08:52:08;;;;;;;33.70;31.50;;;;;;;;;;5040741;28;20798;-80
2023/05/22 08:54:37;;;;;;;31.77;29.77;;;;;;;;;;5040409;28;20488;-79
2023/05/22 08:57:05;;;;;;;33.10;30.90;;;;;;;;;;5040210;28;20510;-79
2023/05/22 08:59:35;;;;;;;32.77;30.77;;;;;;;;;;5039933;28;20442;-80
2023/05/22 09:02:02;;;;;;;34.20;32.10;;;;;;;;;;5040085;28;20457;-80
2023/05/22 09:04:29;;;;;;;33.03;30.70;;;;;;;;;;5040000;28;20426;-80
2023/05/22 09:06:56;;;;;;;33.83;31.63;;;;;;;;;;5039596;28;20496;-80
2023/05/22 09:09:23;;;;;;;35.27;33.00;;;;;;;;;;5040329;28;20475;-80
2023/05/22 09:11:50;;;;;;;35.00;32.60;;;;;;;;;;5040104;28;20452;-80
2023/05/22 09:14:19;;;;;;;34.60;32.30;;;;;;;;;;5040000;28;20980;-79
2023/05/22 09:16:47;;;;;;;34.97;32.57;;;;;;;;;;5039530;28;20457;-79
2023/05/22 09:19:14;;;;;;;35.07;32.70;;;;;;;;;;5038955;28;20464;-79
2023/05/22 09:21:43;;;;;;;34.33;32.03;;;;;;;;;;5039739;28;20426;-80
2023/05/22 09:24:10;;;;;;;33.33;31.00;;;;;;;;;;5040085;28;20436;-79
2023/05/22 09:26:37;;;;;;;32.20;30.00;;;;;;;;;;5038833;28;21002;-80
2023/05/22 09:29:04;;;;;;;34.90;32.40;;;;;;;;;;5040081;28;20456;-80
2023/05/22 09:31:33;;;;;;;33.83;31.40;;;;;;;;;;5041611;28;21005;-80
2023/05/22 09:34:00;;;;;;;34.80;32.23;;;;;;;;;;5043729;28;20426;-80
2023/05/22 09:36:32;;;;;;;32.90;30.80;;;;;;;;;;5043238;28;20491;-80
2023/05/22 09:39:00;;;;;;;33.80;31.60;;;;;;;;;;5043033;28;20430;-80
2023/05/22 09:41:29;;;;;;;34.70;32.27;;;;;;;;;;5043411;28;20426;-80
2023/05/22 09:43:56;;;;;;;34.63;32.27;;;;;;;;;;5043223;28;20466;-80
2023/05/22 09:46:23;;;;;;;35.90;33.50;;;;;;;;;;5043537;28;20951;-80
2023/05/22 09:48:53;;;;;;;33.07;30.97;;;;;;;;;;5043110;28;20458;-80
2023/05/22 09:51:22;;;;;;;34.00;31.47;;;;;;;;;;5043332;28;20426;-79
2023/05/22 09:53:49;;;;;;;33.70;31.40;;;;;;;;;;5043415;28;20458;-80
2023/05/22 09:56:18;;;;;;;33.43;31.13;;;;;;;;;;5042372;28;20479;-80
2023/05/22 09:58:46;;;;;;;35.27;32.87;;;;;;;;;;5042714;28;20969;-80
2023/05/22 10:01:15;;;;;;;35.23;32.77;;;;;;;;;;5042934;28;20513;-80
2023/05/22 10:03:44;;;;;;;32.97;30.47;;;;;;;;;;5042985;28;20423;-80
2023/05/22 10:06:12;;;;;;;36.80;34.20;;;;;;;;;;5042443;28;20895;-80
2023/05/22 10:08:48;;;;;;;33.07;30.77;;;;;;;;;;5043762;28;20447;-80
2023/05/22 10:11:16;;;;;;;34.50;32.20;;;;;;;;;;5043401;28;20486;-80
2023/05/22 10:13:43;;;;;;;34.60;32.30;;;;;;;;;;5043530;28;20673;-80
2023/05/22 10:16:11;;;;;;;35.60;33.13;;;;;;;;;;5042476;28;20489;-80
2023/05/22 10:18:38;;;;;;;35.40;32.77;;;;;;;;;;5042354;28;20460;-80
2023/05/22 10:21:06;;;;;;;34.63;32.33;;;;;;;;;;5042585;28;20468;-80
2023/05/22 10:23:35;;;;;;;34.97;32.50;;;;;;;;;;5046478;28;20430;-80
2023/05/22 10:26:02;;;;;;;34.20;31.87;;;;;;;;;;5045643;28;20485;-80
2023/05/22 10:28:33;;;;;;;34.50;32.20;;;;;;;;;;5045569;28;20441;-80
2023/05/22 10:31:02;;;;;;;34.93;32.60;;;;;;;;;;5044216;28;20438;-79
2023/05/22 10:33:31;;;;;;;34.93;32.63;;;;;;;;;;5043623;28;20471;-80
2023/05/22 10:35:59;;;;;;;35.53;32.97;;;;;;;;;;5042780;28;21091;-80
2023/05/22 10:38:38;;;;;;;34.30;31.90;;;;;;;;;;5043864;28;20437;-80
2023/05/22 10:41:07;;;;;;;35.20;32.73;;;;;;;;;;5042657;28;21028;-79
2023/05/22 10:43:39;;;;;;;36.00;33.70;;;;;;;;;;5042371;28;20476;-80
2023/05/22 10:46:08;;;;;;;35.03;32.50;;;;;;;;;;5041689;28;20787;-80
2023/05/22 10:48:38;;;;;;;34.70;32.40;;;;;;;;;;5043833;28;20443;-80
2023/05/22 10:51:05;;;;;;;33.90;31.60;;;;;;;;;;5043806;28;20549;-80
2023/05/22 10:53:33;;;;;;;35.77;33.30;;;;;;;;;;5043370;28;20422;-80
2023/05/22 10:56:01;;;;;;;35.40;33.00;;;;;;;;;;5043337;28;20795;-80
2023/05/22 10:58:30;;;;;;;36.30;33.50;;;;;;;;;;5050223;28;20471;-80
2023/05/22 11:01:12;;;;;;;34.97;32.30;;;;;;;;;;5057432;28;20467;-79
2023/05/22 11:03:51;;;;;;;37.73;35.07;;;;;;;;;;5058329;28;20435;-79
2023/05/22 11:06:30;;;;;;;36.33;33.70;;;;;;;;;;5048050;28;20914;-80
2023/05/22 11:08:57;;;;;;;36.70;34.00;;;;;;;;;;5046309;28;20432;-80
2023/05/22 11:11:25;;;;;;;37.00;34.30;;;;;;;;;;5045545;28;20530;-80
2023/05/22 11:13:54;;;;;;;36.33;33.80;;;;;;;;;;5046284;28;20897;-80
2023/05/22 11:16:21;;;;;;;35.40;33.10;;;;;;;;;;5044484;28;20488;-80
2023/05/22 11:18:48;;;;;;;36.13;33.53;;;;;;;;;;5045464;28;20430;-80
2023/05/22 11:21:15;;;;;;;38.70;35.63;;;;;;;;;;5044838;28;20907;-80
2023/05/22 11:23:42;;;;;;;36.10;33.53;;;;;;;;;;5044598;28;20485;-80
2023/05/22 11:26:21;;;;;;;36.57;33.83;;;;;;;;;;5044494;28;20414;-80
2023/05/22 11:28:53;;;;;;;37.13;34.43;;;;;;;;;;5044285;28;20421;-80
2023/05/22 11:31:22;;;;;;;36.90;34.47;;;;;;;;;;5044484;28;20922;-80
2023/05/22 11:33:50;;;;;;;38.20;35.23;;;;;;;;;;5043606;28;20530;-80
2023/05/22 11:36:17;;;;;;;36.57;34.07;;;;;;;;;;5042523;28;20465;-79
2023/05/22 11:38:44;;;;;;;36.97;34.47;;;;;;;;;;5043498;28;20426;-80
2023/05/22 11:41:11;;;;;;;37.13;34.53;;;;;;;;;;5042817;28;20449;-80
2023/05/22 11:43:40;;;;;;;37.27;34.47;;;;;;;;;;5043474;28;20456;-80
2023/05/22 11:46:09;;;;;;;37.83;35.33;;;;;;;;;;5042531;28;20427;-80
2023/05/22 11:48:36;;;;;;;37.83;35.23;;;;;;;;;;5042203;28;20429;-80
2023/05/22 11:51:04;;;;;;;37.60;35.10;;;;;;;;;;5042249;28;20483;-80
2023/05/22 11:53:32;;;;;;;37.57;34.77;;;;;;;;;;5042511;28;20436;-79
2023/05/22 11:56:02;;;;;;;37.80;35.20;;;;;;;;;;5041802;28;20461;-80
2023/05/22 11:58:30;;;;;;;36.97;34.37;;;;;;;;;;5042503;28;20435;-80
2023/05/22 12:01:01;;;;;;;39.23;36.53;;;;;;;;;;5042510;28;20472;-80
2023/05/22 12:03:30;;;;;;;39.57;36.57;;;;;;;;;;5042916;28;20432;-80
2023/05/22 12:05:57;;;;;;;39.00;36.00;;;;;;;;;;5041511;28;20440;-80
2023/05/22 12:08:25;;;;;;;38.87;36.17;;;;;;;;;;5041791;28;20927;-80
2023/05/22 12:10:53;;;;;;;38.30;35.70;;;;;;;;;;5042266;28;20550;-80
2023/05/22 12:13:24;;;;;;;37.87;35.10;;;;;;;;;;5041797;28;20429;-80
2023/05/22 12:15:51;;;;;;;38.03;35.33;;;;;;;;;;5041562;28;20922;-80
2023/05/22 12:18:19;;;;;;;37.97;35.33;;;;;;;;;;5042046;28;20434;-80
2023/05/22 12:20:47;;;;;;;39.30;36.50;;;;;;;;;;5041564;28;20477;-80
2023/05/22 12:23:21;;;;;;;39.37;36.57;;;;;;;;;;5042232;28;20443;-80
2023/05/22 12:25:48;;;;;;;37.93;35.03;;;;;;;;;;5041347;28;20440;-80
2023/05/22 12:28:15;;;;;;;39.03;35.90;;;;;;;;;;5041526;28;20470;-80
2023/05/22 12:30:43;;;;;;;39.50;36.60;;;;;;;;;;5041201;28;20465;-80
2023/05/22 12:33:13;;;;;;;39.47;36.57;;;;;;;;;;5042436;28;20455;-80
2023/05/22 12:35:40;;;;;;;39.00;36.40;;;;;;;;;;5042506;28;20532;-80
2023/05/22 12:38:09;;;;;;;40.63;37.90;;;;;;;;;;5043094;28;20460;-80
2023/05/22 12:40:36;;;;;;;41.00;38.10;;;;;;;;;;5041788;28;20503;-80
2023/05/22 12:43:03;;;;;;;40.73;37.70;;;;;;;;;;5042327;28;20501;-80
2023/05/22 12:45:30;;;;;;;39.13;36.27;;;;;;;;;;5040793;28;20981;-80
2023/05/22 12:47:57;;;;;;;42.60;39.47;;;;;;;;;;5041633;28;20437;-80
2023/05/22 12:50:24;;;;;;;38.10;35.40;;;;;;;;;;5041809;28;20458;-80
2023/05/22 12:52:51;;;;;;;39.60;36.60;;;;;;;;;;5041572;28;20922;-80
2023/05/22 12:55:19;;;;;;;41.30;37.90;;;;;;;;;;5042290;28;20444;-80
2023/05/22 12:57:46;;;;;;;40.30;37.40;;;;;;;;;;5041739;28;20943;-80
2023/05/22 13:00:14;;;;;;;40.07;37.30;;;;;;;;;;5041206;28;20446;-80
2023/05/22 13:02:41;;;;;;;42.40;39.20;;;;;;;;;;5042334;28;20427;-80
2023/05/22 13:05:08;;;;;;;42.47;39.37;;;;;;;;;;5041789;28;20484;-79
2023/05/22 13:07:35;;;;;;;42.00;39.10;;;;;;;;;;5044729;28;20470;-80
2023/05/22 13:10:04;;;;;;;42.60;39.70;;;;;;;;;;5046402;28;20518;-80
2023/05/22 13:12:32;;;;;;;41.30;38.37;;;;;;;;;;5046392;28;20509;-80
2023/05/22 13:14:59;;;;;;;43.40;40.00;;;;;;;;;;5046251;28;20434;-80
2023/05/22 13:17:26;;;;;;;45.13;41.63;;;;;;;;;;5045586;28;20458;-80
2023/05/22 13:19:54;;;;;;;44.67;41.47;;;;;;;;;;5046268;28;20500;-79
2023/05/22 13:22:21;;;;;;;43.07;39.90;;;;;;;;;;5046826;28;20456;-80
2023/05/22 13:24:49;;;;;;;43.30;40.30;;;;;;;;;;5046906;28;20923;-79
2023/05/22 13:27:16;;;;;;;46.53;43.13;;;;;;;;;;5046054;28;20437;-80
2023/05/22 13:29:45;;;;;;;46.23;42.60;;;;;;;;;;5047207;28;20517;-79
2023/05/22 13:32:13;;;;;;;45.23;41.50;;;;;;;;;;5047892;28;20425;-80
2023/05/22 13:34:40;;;;;;;45.60;42.17;;;;;;;;;;5048105;28;20422;-80
2023/05/22 13:37:07;;;;;;;44.03;40.73;;;;;;;;;;5047123;28;20457;-80
2023/05/22 13:39:34;;;;;;;43.20;40.10;;;;;;;;;;5047362;28;20511;-80
2023/05/22 13:42:02;;;;;;;45.83;41.93;;;;;;;;;;5047507;28;20899;-80
2023/05/22 13:44:29;;;;;;;45.40;41.93;;;;;;;;;;5047159;28;20474;-79
2023/05/22 13:46:57;;;;;;;45.30;42.07;;;;;;;;;;5046431;28;20436;-80
2023/05/22 13:49:25;;;;;;;45.33;42.03;;;;;;;;;;5047050;28;20498;-80
2023/05/22 13:51:52;;;;;;;46.17;42.87;;;;;;;;;;5047120;28;20460;-80
2023/05/22 13:54:19;;;;;;;44.10;40.70;;;;;;;;;;5047619;28;20509;-80
2023/05/22 13:56:46;;;;;;;48.00;44.27;;;;;;;;;;5047128;28;20492;-79
2023/05/22 13:59:13;;;;;;;45.60;42.20;;;;;;;;;;5044360;28;20834;-80
2023/05/22 14:01:40;;;;;;;49.13;45.10;;;;;;;;;;5041731;28;20459;-80
2023/05/22 14:04:08;;;;;;;43.33;40.10;;;;;;;;;;5041968;28;20432;-80
2023/05/22 14:06:35;;;;;;;44.60;41.17;;;;;;;;;;5042113;28;20423;-80
2023/05/22 14:09:05;;;;;;;43.77;40.47;;;;;;;;;;5042205;28;20451;-80
2023/05/22 14:11:32;;;;;;;46.03;42.53;;;;;;;;;;5041544;28;20440;-80
2023/05/22 14:13:59;;;;;;;45.33;42.03;;;;;;;;;;5041726;28;20509;-80
2023/05/22 14:16:26;;;;;;;43.07;39.97;;;;;;;;;;5040635;28;20485;-80
2023/05/22 14:18:53;;;;;;;44.57;41.47;;;;;;;;;;5040544;28;20434;-80
2023/05/22 14:21:22;;;;;;;42.93;39.83;;;;;;;;;;5041548;28;20426;-80